createdAt,value
2022-08-27T00:02:22.281Z,51.43
2022-08-27T00:05:25.398Z,51.34
2022-08-27T00:08:28.560Z,51.37
2022-08-27T00:11:31.501Z,51.34
2022-08-27T00:14:36.046Z,51.36
2022-08-27T00:17:39.543Z,51.35
2022-08-27T00:20:43.893Z,51.27
2022-08-27T00:23:47.341Z,51.44
2022-08-27T00:26:53.437Z,51.22
2022-08-27T00:29:56.496Z,51.29
2022-08-27T00:32:59.456Z,51.14
2022-08-27T00:36:03.981Z,51.15
2022-08-27T00:39:07.290Z,51.36
2022-08-27T00:42:10.405Z,51.66
2022-08-27T00:45:17.244Z,51.76
2022-08-27T00:48:24.354Z,51.48
2022-08-27T00:51:29.279Z,51.51
2022-08-27T00:54:32.855Z,51.44
2022-08-27T00:57:40.822Z,51.30
2022-08-27T01:00:46.093Z,51.22
2022-08-27T01:03:52.802Z,51.20
2022-08-27T01:06:56.392Z,51.22
2022-08-27T01:10:01.930Z,51.27
2022-08-27T01:13:08.586Z,51.33
2022-08-27T01:16:16.263Z,51.60
2022-08-27T01:19:34.913Z,51.50
2022-08-27T01:22:53.595Z,51.22
2022-08-27T01:25:59.343Z,51.34
2022-08-27T01:29:02.888Z,51.33
2022-08-27T01:32:19.314Z,51.36
2022-08-27T01:35:23.712Z,51.71
2022-08-27T01:38:30.059Z,51.74
2022-08-27T01:41:34.332Z,51.56
2022-08-27T01:45:08.021Z,51.53
2022-08-27T01:48:11.377Z,51.50
2022-08-27T01:51:14.453Z,51.46
2022-08-27T01:54:17.419Z,51.41
2022-08-27T01:57:25.681Z,51.29
2022-08-27T02:00:42.900Z,51.24
2022-08-27T02:03:47.549Z,51.27
2022-08-27T02:06:50.597Z,51.29
2022-08-27T02:09:53.657Z,51.53
2022-08-27T02:12:56.879Z,51.60
2022-08-27T02:16:00.343Z,51.62
2022-08-27T02:19:04.278Z,51.72
2022-08-27T02:22:07.252Z,51.80
2022-08-27T02:25:15.512Z,51.91
2022-08-27T02:28:18.455Z,51.85
2022-08-27T02:31:22.963Z,52.01
2022-08-27T02:34:25.988Z,52.15
2022-08-27T02:37:29.573Z,52.28
2022-08-27T02:40:32.923Z,52.28
2022-08-27T02:43:36.520Z,52.68
2022-08-27T02:46:40.160Z,52.72
2022-08-27T02:49:43.486Z,52.78
2022-08-27T02:52:46.608Z,52.87
2022-08-27T02:55:52.015Z,52.95
2022-08-27T02:58:55.013Z,52.93
2022-08-27T03:01:58.063Z,52.98
2022-08-27T03:05:01.179Z,52.88
2022-08-27T03:08:05.522Z,53.05
2022-08-27T03:11:08.502Z,53.06
2022-08-27T03:14:12.953Z,53.11
2022-08-27T03:17:35.099Z,53.06
2022-08-27T03:20:40.882Z,52.94
2022-08-27T03:23:44.018Z,53.03
2022-08-27T03:26:52.468Z,53.04
2022-08-27T03:29:59.657Z,53.20
2022-08-27T03:33:06.123Z,53.27
2022-08-27T03:36:09.860Z,52.93
2022-08-27T03:39:12.957Z,52.91
2022-08-27T03:42:16.027Z,53.11
2022-08-27T03:45:19.055Z,53.34
2022-08-27T03:48:22.173Z,53.33
2022-08-27T03:51:25.403Z,53.31
2022-08-27T03:54:28.349Z,53.46
2022-08-27T03:57:31.784Z,53.47
2022-08-27T04:00:34.948Z,53.62
2022-08-27T04:03:38.140Z,53.91
2022-08-27T04:06:41.479Z,54.13
2022-08-27T04:09:44.478Z,54.24
2022-08-27T04:12:47.402Z,54.14
2022-08-27T04:15:52.674Z,54.05
2022-08-27T04:18:55.643Z,54.08
2022-08-27T04:22:06.914Z,54.09
2022-08-27T04:25:11.607Z,54.20
2022-08-27T04:28:15.946Z,53.98
2022-08-27T04:31:20.332Z,54.30
2022-08-27T04:34:23.740Z,54.56
2022-08-27T04:37:30.960Z,54.54
2022-08-27T04:40:52.569Z,54.50
2022-08-27T04:43:58.234Z,54.47
2022-08-27T04:47:03.764Z,54.51
2022-08-27T04:50:07.194Z,54.69
2022-08-27T04:53:16.121Z,54.89
2022-08-27T04:56:22.416Z,55.10
2022-08-27T04:59:25.460Z,55.20
2022-08-27T05:02:28.370Z,55.31
2022-08-27T05:05:31.311Z,55.48
2022-08-27T05:08:34.603Z,55.54
2022-08-27T05:11:38.149Z,55.66
2022-08-27T05:14:41.138Z,55.80
2022-08-27T05:17:44.494Z,55.85
2022-08-27T05:20:49.008Z,55.92
2022-08-27T05:23:54.385Z,55.89
2022-08-27T05:26:57.454Z,55.84
2022-08-27T05:30:00.454Z,55.96
2022-08-27T05:33:03.734Z,56.13
2022-08-27T05:36:07.879Z,56.31
2022-08-27T05:39:10.837Z,56.48
2022-08-27T05:42:13.780Z,56.63
2022-08-27T05:45:17.271Z,56.62
2022-08-27T05:48:20.345Z,56.45
2022-08-27T05:51:30.195Z,56.28
2022-08-27T05:54:33.963Z,56.10
2022-08-27T05:57:36.906Z,56.12
2022-08-27T06:01:02.479Z,56.00
2022-08-27T06:04:06.885Z,55.61
2022-08-27T06:07:11.005Z,55.70
2022-08-27T06:10:14.392Z,55.48
2022-08-27T06:13:17.762Z,55.36
2022-08-27T06:16:20.842Z,55.42
2022-08-27T06:19:24.288Z,55.50
2022-08-27T06:22:27.325Z,55.34
2022-08-27T06:25:32.387Z,55.19
2022-08-27T06:28:35.941Z,55.21
2022-08-27T06:31:40.510Z,54.60
2022-08-27T06:34:43.719Z,54.40
2022-08-27T06:37:46.687Z,54.05
2022-08-27T06:40:49.593Z,53.99
2022-08-27T06:43:53.932Z,53.88
2022-08-27T06:46:56.952Z,53.78
2022-08-27T06:50:00.449Z,53.54
2022-08-27T06:53:04.219Z,53.63
2022-08-27T06:56:07.457Z,53.53
2022-08-27T06:59:15.789Z,53.00
2022-08-27T07:02:18.872Z,52.80
2022-08-27T07:05:21.868Z,52.75
2022-08-27T07:08:24.826Z,52.60
2022-08-27T07:11:29.491Z,52.72
2022-08-27T07:14:37.704Z,52.60
2022-08-27T07:17:41.259Z,52.70
2022-08-27T07:20:45.024Z,52.69
2022-08-27T07:23:50.473Z,51.83
2022-08-27T07:26:53.923Z,51.56
2022-08-27T07:29:58.490Z,51.68
2022-08-27T07:33:14.516Z,51.47
2022-08-27T07:36:18.198Z,51.52
2022-08-27T07:39:21.253Z,51.71
2022-08-27T07:42:42.569Z,51.35
2022-08-27T07:45:48.599Z,51.24
2022-08-27T07:48:53.109Z,51.23
2022-08-27T07:51:56.214Z,51.07
2022-08-27T07:54:59.381Z,51.14
2022-08-27T07:58:02.422Z,50.97
2022-08-27T08:01:06.210Z,51.11
2022-08-27T08:04:10.116Z,51.10
2022-08-27T08:07:15.184Z,50.66
2022-08-27T08:10:22.665Z,50.01
2022-08-27T08:13:26.589Z,49.64
2022-08-27T08:16:31.829Z,49.49
2022-08-27T08:19:35.403Z,49.44
2022-08-27T08:22:39.479Z,48.70
2022-08-27T08:25:58.652Z,48.67
2022-08-27T08:29:05.036Z,48.69
2022-08-27T08:32:08.376Z,48.92
2022-08-27T08:35:11.994Z,48.85
2022-08-27T08:41:54.549Z,48.23
2022-08-27T08:45:01.512Z,48.34
2022-08-27T08:48:12.753Z,48.40
2022-08-27T08:51:31.570Z,48.27
2022-08-27T08:54:34.983Z,47.39
2022-08-27T08:57:47.820Z,47.20
2022-08-27T09:00:56.654Z,46.72
2022-08-27T09:04:05.944Z,46.41
2022-08-27T09:07:41.217Z,46.22
2022-08-27T09:10:52.798Z,45.63
2022-08-27T09:14:00.336Z,45.73
2022-08-27T09:17:04.665Z,45.49
2022-08-27T09:20:19.513Z,45.04
2022-08-27T09:23:46.549Z,44.52
2022-08-27T09:26:49.755Z,44.38
2022-08-27T09:29:56.218Z,43.94
2022-08-27T09:33:04.791Z,43.50
2022-08-27T09:36:13.749Z,43.60
2022-08-27T09:39:17.547Z,43.63
2022-08-27T09:42:40.491Z,43.95
2022-08-27T09:45:56.245Z,43.45
2022-08-27T09:49:11.222Z,43.51
2022-08-27T09:52:33.221Z,43.86
2022-08-27T09:55:47.975Z,44.13
2022-08-27T09:59:07.248Z,44.60
2022-08-27T10:02:20.286Z,44.99
2022-08-27T10:05:42.879Z,45.14
2022-08-27T10:08:50.629Z,45.57
2022-08-27T10:12:03.639Z,45.38
2022-08-27T10:15:08.070Z,44.46
2022-08-27T10:18:49.057Z,44.86
2022-08-27T10:22:19.353Z,44.44
2022-08-27T10:25:31.470Z,44.79
2022-08-27T10:28:36.832Z,44.81
2022-08-27T10:32:06.920Z,45.08
2022-08-27T10:35:17.992Z,45.05
2022-08-27T10:38:44.395Z,44.85
2022-08-27T10:42:12.202Z,44.73
2022-08-27T10:45:41.937Z,44.68
2022-08-27T10:48:56.937Z,44.69
2022-08-27T10:52:21.395Z,44.72
2022-08-27T10:55:40.028Z,44.83
2022-08-27T10:58:54.518Z,44.82
2022-08-27T11:02:13.111Z,44.90
2022-08-27T11:05:25.015Z,44.80
2022-08-27T11:08:49.886Z,44.92
2022-08-27T11:12:15.433Z,45.13
2022-08-27T11:15:31.789Z,45.36
2022-08-27T11:19:01.048Z,45.34
2022-08-27T11:22:14.802Z,45.00
2022-08-27T11:25:23.096Z,44.36
2022-08-27T11:28:37.761Z,44.58
2022-08-27T11:31:51.612Z,44.44
2022-08-27T11:35:02.165Z,44.35
2022-08-27T11:38:44.259Z,44.35
2022-08-27T11:41:54.187Z,44.06
2022-08-27T11:45:03.834Z,43.66
2022-08-27T11:48:22.193Z,43.04
2022-08-27T11:51:37.690Z,43.02
2022-08-27T11:54:51.705Z,42.73
2022-08-27T11:58:06.485Z,42.87
2022-08-27T12:01:24.116Z,42.95
2022-08-27T12:04:40.277Z,42.63
2022-08-27T12:07:46.098Z,42.63
2022-08-27T12:10:58.460Z,42.18
2022-08-27T12:14:08.660Z,42.31
2022-08-27T12:17:22.410Z,42.66
2022-08-27T12:20:42.930Z,42.78
2022-08-27T12:24:01.621Z,43.10
2022-08-27T12:27:22.182Z,43.31
2022-08-27T12:30:33.426Z,43.62
2022-08-27T12:33:46.752Z,43.82
2022-08-27T12:36:52.746Z,43.95
2022-08-27T12:39:58.911Z,42.99
2022-08-27T12:43:27.647Z,42.74
2022-08-27T12:46:31.378Z,42.88
2022-08-27T12:49:57.113Z,43.44
2022-08-27T12:53:31.448Z,43.47
2022-08-27T12:56:51.901Z,43.17
2022-08-27T13:00:00.491Z,43.25
2022-08-27T13:03:26.229Z,43.08
2022-08-27T13:06:36.166Z,42.76
2022-08-27T13:09:40.357Z,42.27
2022-08-27T13:12:45.119Z,42.26
2022-08-27T13:15:51.401Z,42.40
2022-08-27T13:18:55.151Z,42.23
2022-08-27T13:21:58.715Z,42.34
2022-08-27T13:25:02.519Z,42.29
2022-08-27T13:28:17.133Z,42.43
2022-08-27T13:31:22.536Z,42.69
2022-08-27T13:34:28.450Z,42.40
2022-08-27T13:37:41.858Z,42.51
2022-08-27T13:41:01.095Z,42.77
2022-08-27T13:44:18.028Z,42.95
2022-08-27T13:47:23.699Z,42.95
2022-08-27T13:50:30.019Z,43.31
2022-08-27T13:53:53.263Z,43.59
2022-08-27T13:57:08.282Z,43.53
2022-08-27T14:00:18.038Z,43.57
2022-08-27T14:03:35.325Z,43.72
2022-08-27T14:06:46.963Z,43.70
2022-08-27T14:09:57.377Z,43.88
2022-08-27T14:13:04.706Z,43.66
2022-08-27T14:16:22.465Z,43.66
2022-08-27T14:19:36.827Z,43.82
2022-08-27T14:22:40.194Z,43.81
2022-08-27T14:25:43.758Z,43.91
2022-08-27T14:28:46.802Z,43.84
2022-08-27T14:31:49.863Z,44.18
2022-08-27T14:34:54.451Z,44.25
2022-08-27T14:37:59.352Z,44.41
2022-08-27T14:41:02.607Z,44.63
2022-08-27T14:44:09.582Z,44.68
2022-08-27T14:47:14.219Z,44.83
2022-08-27T14:50:17.259Z,44.72
2022-08-27T14:53:20.623Z,44.78
2022-08-27T14:56:25.058Z,44.38
2022-08-27T14:59:28.072Z,43.74
2022-08-27T15:02:31.333Z,43.36
2022-08-27T15:05:34.266Z,43.19
2022-08-27T15:08:37.507Z,43.34
2022-08-27T15:11:45.928Z,43.69
2022-08-27T15:14:48.936Z,43.79
2022-08-27T15:17:53.480Z,43.83
2022-08-27T15:20:56.519Z,43.83
2022-08-27T15:24:06.218Z,44.12
2022-08-27T15:27:09.262Z,44.30
2022-08-27T15:30:14.322Z,44.18
2022-08-27T15:33:17.563Z,44.24
2022-08-27T15:36:21.795Z,44.45
2022-08-27T15:39:24.691Z,44.27
2022-08-27T15:42:28.343Z,44.08
2022-08-27T15:45:32.661Z,44.39
2022-08-27T15:48:35.814Z,44.60
2022-08-27T15:51:38.861Z,44.68
2022-08-27T15:54:41.769Z,44.81
2022-08-27T15:57:44.628Z,44.71
2022-08-27T16:00:47.846Z,44.76
2022-08-27T16:04:06.111Z,45.11
2022-08-27T16:07:09.212Z,45.62
2022-08-27T16:10:12.568Z,45.61
2022-08-27T16:13:16.488Z,45.44
2022-08-27T16:16:24.254Z,45.76
2022-08-27T16:19:27.304Z,45.99
2022-08-27T16:22:30.216Z,46.04
2022-08-27T16:25:33.333Z,46.47
2022-08-27T16:28:36.194Z,46.39
2022-08-27T16:31:39.120Z,46.67
2022-08-27T16:34:42.023Z,47.12
2022-08-27T16:37:47.368Z,47.43
2022-08-27T16:40:53.333Z,47.67
2022-08-27T16:43:58.942Z,47.68
2022-08-27T16:47:01.973Z,48.05
2022-08-27T16:50:26.209Z,47.95
2022-08-27T16:53:30.543Z,48.08
2022-08-27T16:56:37.102Z,48.41
2022-08-27T16:59:41.095Z,48.96
2022-08-27T17:02:44.135Z,49.35
2022-08-27T17:05:47.567Z,49.77
2022-08-27T17:08:54.040Z,49.93
2022-08-27T17:11:58.665Z,50.13
2022-08-27T17:15:02.145Z,50.55
2022-08-27T17:18:05.533Z,50.54
2022-08-27T17:21:08.532Z,50.74
2022-08-27T17:24:12.711Z,50.89
2022-08-27T17:27:17.973Z,50.79
2022-08-27T17:30:21.335Z,51.13
2022-08-27T17:33:52.092Z,50.72
2022-08-27T17:36:55.884Z,50.72
2022-08-27T17:39:58.839Z,50.65
2022-08-27T17:43:01.930Z,50.69
2022-08-27T17:46:05.105Z,50.59
2022-08-27T17:49:08.206Z,50.57
2022-08-27T17:52:15.345Z,50.63
2022-08-27T17:55:18.377Z,50.77
2022-08-27T17:58:21.432Z,51.35
2022-08-27T18:01:28.757Z,51.55
2022-08-27T18:04:32.981Z,51.66
2022-08-27T18:07:39.802Z,51.79
2022-08-27T18:10:44.857Z,51.98
2022-08-27T18:13:52.536Z,52.04
2022-08-27T18:16:55.981Z,52.12
2022-08-27T18:19:59.745Z,52.36
2022-08-27T18:23:03.193Z,52.56
2022-08-27T18:26:14.811Z,52.80
2022-08-27T18:29:18.737Z,52.85
2022-08-27T18:32:21.675Z,52.98
2022-08-27T18:35:28.043Z,52.99
2022-08-27T18:38:31.503Z,53.05
2022-08-27T18:41:34.390Z,53.19
2022-08-27T18:44:40.718Z,53.40
2022-08-27T18:47:45.514Z,53.54
2022-08-27T18:50:55.540Z,53.73
2022-08-27T18:53:59.083Z,53.88
2022-08-27T18:57:02.016Z,54.14
2022-08-27T19:00:12.474Z,54.14
2022-08-27T19:03:27.682Z,54.24
2022-08-27T19:06:31.056Z,54.38
2022-08-27T19:09:33.945Z,54.54
2022-08-27T19:12:36.973Z,54.59
2022-08-27T19:15:43.899Z,54.74
2022-08-27T19:18:47.070Z,54.86
2022-08-27T19:21:51.770Z,54.85
2022-08-27T19:24:54.840Z,55.20
2022-08-27T19:27:57.805Z,55.25
2022-08-27T19:31:01.672Z,55.33
2022-08-27T19:34:06.418Z,55.54
2022-08-27T19:37:16.684Z,55.66
2022-08-27T19:40:22.155Z,55.77
2022-08-27T19:43:25.351Z,55.88
2022-08-27T19:46:29.069Z,56.00
2022-08-27T19:49:32.191Z,56.13
2022-08-27T19:52:35.969Z,56.15
2022-08-27T19:55:39.919Z,56.28
2022-08-27T19:58:43.213Z,56.31
2022-08-27T20:01:46.699Z,56.49
2022-08-27T20:05:14.321Z,56.68
2022-08-27T20:08:12.993Z,56.75
2022-08-27T20:11:17.287Z,56.70
2022-08-27T20:14:25.128Z,56.78
2022-08-27T20:17:28.051Z,57.01
2022-08-27T20:20:33.876Z,57.02
2022-08-27T20:23:36.959Z,57.18
2022-08-27T20:26:41.467Z,57.16
2022-08-27T20:29:44.669Z,57.29
2022-08-27T20:32:47.669Z,57.45
2022-08-27T20:35:51.643Z,57.55
2022-08-27T20:38:58.281Z,57.61
2022-08-27T20:42:01.196Z,57.69
2022-08-27T20:45:12.420Z,57.74
2022-08-27T20:48:15.825Z,57.81
2022-08-27T20:51:19.660Z,57.91
2022-08-27T20:54:23.816Z,57.94
2022-08-27T20:57:32.012Z,58.10
2022-08-27T21:00:46.997Z,58.16
2022-08-27T21:03:51.933Z,58.15
2022-08-27T21:06:59.448Z,58.27
2022-08-27T21:10:06.154Z,58.19
2022-08-27T21:13:12.518Z,58.22
2022-08-27T21:16:16.197Z,58.38
2022-08-27T21:19:20.058Z,58.43
2022-08-27T21:22:24.032Z,58.50
2022-08-27T21:25:28.604Z,58.46
2022-08-27T21:28:40.861Z,58.43
2022-08-27T21:31:49.714Z,58.48
2022-08-27T21:34:52.709Z,58.47
2022-08-27T21:37:57.599Z,58.54
2022-08-27T21:41:00.718Z,58.64
2022-08-27T21:44:04.134Z,58.71
2022-08-27T21:47:10.790Z,58.73
2022-08-27T21:50:14.094Z,58.86
2022-08-27T21:53:17.657Z,58.90
2022-08-27T21:56:20.839Z,59.00
2022-08-27T21:59:23.781Z,59.11
2022-08-27T22:02:39.744Z,58.97
2022-08-27T22:05:45.140Z,58.94
2022-08-27T22:08:48.515Z,58.96
2022-08-27T22:11:51.457Z,59.11
2022-08-27T22:14:54.564Z,59.10
2022-08-27T22:17:58.724Z,59.16
2022-08-27T22:21:03.859Z,59.13
2022-08-27T22:24:07.126Z,59.07
2022-08-27T22:27:10.009Z,59.23
2022-08-27T22:30:13.653Z,59.02
2022-08-27T22:33:17.834Z,59.09
2022-08-27T22:36:20.809Z,59.20
2022-08-27T22:39:24.054Z,59.02
2022-08-27T22:42:27.837Z,59.06
2022-08-27T22:45:31.030Z,58.94
2022-08-27T22:48:33.957Z,59.04
2022-08-27T22:51:37.098Z,58.93
2022-08-27T22:54:40.108Z,58.88
2022-08-27T22:57:42.963Z,58.91
2022-08-27T23:00:51.998Z,58.97
2022-08-27T23:03:55.753Z,59.08
2022-08-27T23:07:01.868Z,59.05
2022-08-27T23:10:07.720Z,59.12
2022-08-27T23:13:11.793Z,59.13
2022-08-27T23:16:17.776Z,59.19
2022-08-27T23:19:21.127Z,59.15
2022-08-27T23:22:24.048Z,59.16
2022-08-27T23:25:45.778Z,59.22
2022-08-27T23:28:48.709Z,59.20
2022-08-27T23:31:52.821Z,59.28
2022-08-27T23:34:56.524Z,59.20
2022-08-27T23:37:59.523Z,59.19
2022-08-27T23:41:02.412Z,59.40
2022-08-27T23:44:05.661Z,59.48
2022-08-27T23:47:08.569Z,59.38
2022-08-27T23:50:12.320Z,59.42
2022-08-27T23:53:15.275Z,59.65
2022-08-27T23:56:18.220Z,59.70
2022-08-27T23:59:21.132Z,59.60
